createdAt,value
2018-09-24T00:01:12.219Z,11.40
2018-09-24T00:03:40.462Z,11.50
2018-09-24T00:06:09.047Z,11.40
2018-09-24T00:08:37.269Z,11.30
2018-09-24T00:11:05.522Z,11.30
2018-09-24T00:13:33.722Z,11.30
2018-09-24T00:16:01.929Z,11.20
2018-09-24T00:18:30.256Z,11.10
2018-09-24T00:20:58.501Z,11.10
2018-09-24T00:23:26.773Z,11.10
2018-09-24T00:25:54.978Z,11.10
2018-09-24T00:28:23.245Z,11.10
2018-09-24T00:30:51.493Z,11.10
2018-09-24T00:33:19.709Z,11.10
2018-09-24T00:35:47.961Z,11.20
2018-09-24T00:38:16.214Z,11.20
2018-09-24T00:40:44.461Z,11.30
2018-09-24T00:43:12.710Z,11.40
2018-09-24T00:45:41.170Z,11.40
2018-09-24T00:48:09.441Z,11.50
2018-09-24T00:50:37.790Z,11.50
2018-09-24T00:53:06.336Z,11.40
2018-09-24T00:55:34.585Z,11.30
2018-09-24T00:58:02.806Z,11.20
2018-09-24T01:00:31.027Z,11.20
2018-09-24T01:02:59.231Z,11.20
2018-09-24T01:05:27.506Z,11.20
2018-09-24T01:07:55.989Z,11.30
2018-09-24T01:10:24.216Z,11.30
2018-09-24T01:12:52.521Z,11.30
2018-09-24T01:15:20.773Z,11.30
2018-09-24T01:17:48.993Z,11.30
2018-09-24T01:20:17.237Z,11.30
2018-09-24T01:22:45.517Z,11.30
2018-09-24T01:25:13.732Z,11.10
2018-09-24T01:27:41.965Z,11.00
2018-09-24T01:30:10.458Z,11.10
2018-09-24T01:32:38.665Z,11.10
2018-09-24T01:35:06.960Z,11.10
2018-09-24T01:37:35.161Z,11.00
2018-09-24T01:40:03.436Z,11.00
2018-09-24T01:42:31.671Z,11.00
2018-09-24T01:44:59.901Z,11.00
2018-09-24T01:47:28.150Z,11.00
2018-09-24T01:49:56.377Z,11.00
2018-09-24T01:52:24.657Z,11.10
2018-09-24T01:54:52.874Z,11.20
2018-09-24T01:57:21.089Z,11.20
2018-09-24T01:59:53.605Z,11.30
2018-09-24T02:02:21.913Z,11.20
2018-09-24T02:04:50.453Z,11.30
2018-09-24T02:07:18.942Z,11.30
2018-09-24T02:09:47.525Z,11.20
2018-09-24T02:12:15.960Z,11.20
2018-09-24T02:14:44.232Z,11.20
2018-09-24T02:17:16.821Z,11.10
2018-09-24T02:19:45.958Z,11.10
2018-09-24T02:22:14.563Z,11.00
2018-09-24T02:24:42.777Z,11.00
2018-09-24T02:27:11.678Z,11.00
2018-09-24T02:29:40.265Z,10.90
2018-09-24T02:32:08.505Z,10.80
2018-09-24T02:34:36.965Z,10.70
2018-09-24T02:37:05.186Z,10.70
2018-09-24T02:39:33.395Z,10.70
2018-09-24T02:42:01.605Z,10.70
2018-09-24T02:44:29.863Z,10.80
2018-09-24T02:46:58.094Z,10.70
2018-09-24T02:49:26.311Z,10.70
2018-09-24T02:51:54.617Z,10.80
2018-09-24T02:54:22.837Z,10.80
2018-09-24T02:58:20.297Z,10.80
2018-09-24T03:02:17.974Z,10.70
2018-09-24T03:04:46.325Z,10.50
2018-09-24T03:07:14.584Z,10.30
2018-09-24T03:09:42.802Z,10.30
2018-09-24T03:12:11.044Z,10.30
2018-09-24T03:14:39.254Z,10.40
2018-09-24T03:17:07.721Z,10.40
2018-09-24T03:19:35.958Z,10.50
2018-09-24T03:22:04.241Z,10.50
2018-09-24T03:24:32.464Z,10.50
2018-09-24T03:27:00.709Z,10.60
2018-09-24T03:29:28.964Z,10.50
2018-09-24T03:31:57.193Z,10.50
2018-09-24T03:34:25.515Z,10.50
2018-09-24T03:36:53.812Z,10.50
2018-09-24T03:39:22.102Z,10.60
2018-09-24T03:41:50.422Z,10.60
2018-09-24T03:44:18.637Z,10.60
2018-09-24T03:46:46.861Z,10.50
2018-09-24T03:49:15.117Z,10.50
2018-09-24T03:51:43.993Z,10.40
2018-09-24T03:54:12.225Z,10.40
2018-09-24T03:56:40.488Z,10.40
2018-09-24T03:59:08.719Z,10.40
2018-09-24T04:01:37.201Z,10.30
2018-09-24T04:04:10.727Z,10.30
2018-09-24T04:06:44.361Z,10.20
2018-09-24T04:09:17.948Z,10.20
2018-09-24T04:11:51.461Z,10.20
2018-09-24T04:14:25.133Z,10.10
2018-09-24T04:16:58.658Z,10.10
2018-09-24T04:19:32.237Z,9.90
2018-09-24T04:22:05.763Z,9.90
2018-09-24T04:24:39.389Z,9.80
2018-09-24T04:27:12.866Z,9.80
2018-09-24T04:29:46.534Z,9.80
2018-09-24T04:32:20.106Z,9.90
2018-09-24T04:34:53.669Z,9.90
2018-09-24T04:37:27.327Z,10.00
2018-09-24T04:40:00.849Z,10.00
2018-09-24T04:42:34.537Z,10.00
2018-09-24T04:45:08.139Z,10.00
2018-09-24T04:47:41.777Z,10.00
2018-09-24T04:50:15.361Z,10.00
2018-09-24T04:52:49.002Z,10.00
2018-09-24T04:55:22.598Z,10.00
2018-09-24T04:57:56.239Z,10.00
2018-09-24T05:00:29.841Z,10.00
2018-09-24T05:03:03.485Z,10.10
2018-09-24T05:05:37.094Z,10.00
2018-09-24T05:08:10.706Z,10.00
2018-09-24T05:10:44.206Z,10.10
2018-09-24T05:13:17.876Z,10.10
2018-09-24T05:15:51.378Z,10.10
2018-09-24T05:18:24.993Z,10.00
2018-09-24T05:20:58.740Z,10.10
2018-09-24T05:23:32.685Z,10.10
2018-09-24T05:26:06.182Z,10.10
2018-09-24T05:28:39.826Z,10.00
2018-09-24T05:31:13.477Z,9.90
2018-09-24T05:33:47.143Z,9.90
2018-09-24T05:36:20.748Z,10.00
2018-09-24T05:38:54.347Z,10.00
2018-09-24T05:41:28.022Z,10.10
2018-09-24T05:44:01.695Z,10.10
2018-09-24T05:46:35.373Z,10.20
2018-09-24T05:49:08.994Z,10.20
2018-09-24T05:51:42.444Z,10.40
2018-09-24T05:54:16.013Z,10.40
2018-09-24T05:56:49.639Z,10.40
2018-09-24T05:59:23.256Z,10.50
2018-09-24T06:01:56.760Z,10.50
2018-09-24T06:04:30.607Z,10.50
2018-09-24T06:07:04.205Z,10.60
2018-09-24T06:09:37.805Z,10.80
2018-09-24T06:12:11.455Z,11.00
2018-09-24T06:14:45.084Z,11.10
2018-09-24T06:17:18.593Z,11.20
2018-09-24T06:19:52.197Z,11.20
2018-09-24T06:22:25.729Z,11.20
2018-09-24T06:24:59.364Z,11.10
2018-09-24T06:27:32.966Z,11.00
2018-09-24T06:30:06.447Z,10.90
2018-09-24T06:32:39.987Z,10.80
2018-09-24T06:35:13.581Z,10.80
2018-09-24T06:37:47.124Z,10.80
2018-09-24T06:40:20.736Z,10.80
2018-09-24T06:42:54.318Z,10.90
2018-09-24T06:45:28.265Z,10.80
2018-09-24T06:48:01.933Z,10.90
2018-09-24T06:50:35.605Z,11.00
2018-09-24T06:53:09.094Z,11.20
2018-09-24T06:55:42.550Z,11.40
2018-09-24T06:58:16.243Z,11.60
2018-09-24T07:00:49.758Z,11.60
2018-09-24T07:03:23.372Z,11.60
2018-09-24T07:05:57.062Z,11.50
2018-09-24T07:08:30.667Z,11.40
2018-09-24T07:11:04.315Z,11.30
2018-09-24T07:13:37.903Z,11.10
2018-09-24T07:16:11.593Z,11.10
2018-09-24T07:18:45.235Z,11.10
2018-09-24T07:21:18.883Z,10.90
2018-09-24T07:23:52.613Z,10.90
2018-09-24T07:26:26.530Z,10.80
2018-09-24T07:29:00.281Z,10.90
2018-09-24T07:31:33.935Z,11.10
2018-09-24T07:34:07.511Z,11.30
2018-09-24T07:36:41.173Z,11.70
2018-09-24T07:39:15.351Z,11.80
2018-09-24T07:41:49.245Z,11.90
2018-09-24T07:44:22.819Z,12.00
2018-09-24T07:46:56.450Z,12.20
2018-09-24T07:49:30.102Z,12.30
2018-09-24T07:52:03.802Z,12.30
2018-09-24T07:54:37.418Z,12.20
2018-09-24T07:57:10.894Z,12.20
2018-09-24T07:59:44.548Z,12.00
2018-09-24T08:02:18.201Z,12.00
2018-09-24T08:04:51.875Z,12.00
2018-09-24T08:07:25.636Z,11.90
2018-09-24T08:09:59.257Z,11.90
2018-09-24T08:12:32.979Z,12.20
2018-09-24T08:15:06.594Z,12.50
2018-09-24T08:17:40.210Z,12.60
2018-09-24T08:20:13.883Z,12.60
2018-09-24T08:22:47.513Z,12.30
2018-09-24T08:25:21.086Z,12.20
2018-09-24T08:27:54.960Z,12.10
2018-09-24T08:30:28.467Z,12.00
2018-09-24T08:33:02.098Z,12.10
2018-09-24T08:35:35.732Z,12.40
2018-09-24T08:38:09.418Z,12.80
2018-09-24T08:40:42.990Z,12.80
2018-09-24T08:43:16.605Z,12.70
2018-09-24T08:45:50.218Z,12.30
2018-09-24T08:48:24.059Z,12.10
2018-09-24T08:50:57.718Z,11.90
2018-09-24T08:53:31.419Z,11.80
2018-09-24T08:56:05.063Z,11.90
2018-09-24T08:58:38.750Z,12.00
2018-09-24T09:01:12.408Z,12.20
2018-09-24T09:03:45.825Z,12.30
2018-09-24T09:06:19.467Z,12.50
2018-09-24T09:08:53.267Z,12.50
2018-09-24T09:11:27.018Z,12.50
2018-09-24T09:14:00.552Z,12.60
2018-09-24T09:16:34.168Z,12.60
2018-09-24T09:19:07.742Z,12.70
2018-09-24T09:21:41.365Z,13.00
2018-09-24T09:24:14.961Z,13.40
2018-09-24T09:26:48.585Z,13.60
2018-09-24T09:29:22.450Z,13.70
2018-09-24T09:31:56.080Z,13.60
2018-09-24T09:34:29.522Z,13.60
2018-09-24T09:37:03.257Z,13.50
2018-09-24T09:39:36.768Z,13.40
2018-09-24T09:42:10.470Z,13.40
2018-09-24T09:44:44.044Z,13.60
2018-09-24T09:47:17.705Z,13.80
2018-09-24T09:49:51.437Z,13.80
2018-09-24T09:52:25.124Z,13.80
2018-09-24T09:54:58.753Z,14.00
2018-09-24T09:57:32.380Z,14.10
2018-09-24T10:00:06.057Z,13.90
2018-09-24T10:02:39.722Z,13.80
2018-09-24T10:05:13.293Z,13.80
2018-09-24T10:07:46.928Z,13.90
2018-09-24T10:10:20.498Z,14.30
2018-09-24T10:12:54.146Z,14.40
2018-09-24T10:15:27.800Z,14.20
2018-09-24T10:18:01.449Z,14.00
2018-09-24T10:20:34.965Z,13.80
2018-09-24T10:23:08.551Z,13.60
2018-09-24T10:25:42.057Z,13.60
2018-09-24T10:28:15.430Z,13.70
2018-09-24T10:30:49.157Z,14.20
2018-09-24T10:33:22.915Z,14.90
2018-09-24T10:35:56.774Z,15.40
2018-09-24T10:38:30.420Z,15.50
2018-09-24T10:41:04.058Z,15.00
2018-09-24T10:43:37.711Z,14.60
2018-09-24T10:46:11.511Z,14.60
2018-09-24T10:48:45.153Z,15.10
2018-09-24T10:51:18.841Z,16.00
2018-09-24T10:53:52.385Z,17.10
2018-09-24T10:56:25.890Z,18.40
2018-09-24T10:58:59.432Z,19.30
2018-09-24T11:01:33.061Z,20.90
2018-09-24T11:04:06.574Z,21.80
2018-09-24T11:06:40.208Z,21.20
2018-09-24T11:09:14.181Z,21.30
2018-09-24T11:11:47.723Z,21.30
2018-09-24T11:14:21.319Z,21.20
2018-09-24T11:16:55.159Z,21.60
2018-09-24T11:19:28.410Z,22.90
2018-09-24T11:22:02.074Z,25.00
2018-09-24T11:24:35.570Z,25.20
2018-09-24T11:27:09.298Z,24.10
2018-09-24T11:29:43.017Z,23.50
2018-09-24T11:32:16.797Z,23.10
2018-09-24T11:34:50.409Z,22.40
2018-09-24T11:37:24.051Z,21.50
2018-09-24T11:39:57.534Z,20.60
2018-09-24T11:42:31.257Z,19.70
2018-09-24T11:45:04.862Z,18.80
2018-09-24T11:47:38.369Z,19.50
2018-09-24T11:50:12.207Z,21.50
2018-09-24T11:52:45.854Z,22.70
2018-09-24T11:55:19.486Z,22.30
2018-09-24T11:57:53.135Z,22.30
2018-09-24T12:00:26.773Z,22.70
2018-09-24T12:03:00.330Z,22.10
2018-09-24T12:05:33.840Z,21.20
2018-09-24T12:08:07.355Z,21.30
2018-09-24T12:10:41.041Z,21.30
2018-09-24T12:13:14.712Z,21.30
2018-09-24T12:15:48.348Z,22.20
2018-09-24T12:18:21.981Z,23.90
2018-09-24T12:20:55.581Z,25.70
2018-09-24T12:23:29.182Z,26.80
2018-09-24T12:26:02.702Z,27.70
2018-09-24T12:28:36.365Z,28.30
2018-09-24T12:31:09.953Z,28.40
2018-09-24T12:33:43.588Z,29.00
2018-09-24T12:36:17.229Z,29.70
2018-09-24T12:38:50.892Z,30.00
2018-09-24T12:41:24.533Z,29.90
2018-09-24T12:43:58.107Z,29.20
2018-09-24T12:46:31.626Z,27.90
2018-09-24T12:49:05.222Z,26.30
2018-09-24T12:51:38.850Z,24.50
2018-09-24T12:54:12.608Z,23.10
2018-09-24T12:56:46.226Z,23.30
2018-09-24T12:59:19.864Z,24.00
2018-09-24T13:01:53.556Z,24.70
2018-09-24T13:04:27.201Z,25.80
2018-09-24T13:07:00.857Z,26.10
2018-09-24T13:09:34.478Z,27.20
2018-09-24T13:12:08.097Z,27.70
2018-09-24T13:14:41.603Z,27.20
2018-09-24T13:17:15.123Z,25.90
2018-09-24T13:19:48.726Z,25.60
2018-09-24T13:22:22.065Z,26.10
2018-09-24T13:24:55.734Z,25.80
2018-09-24T13:27:29.327Z,26.30
2018-09-24T13:30:03.123Z,28.00
2018-09-24T13:32:36.731Z,29.50
2018-09-24T13:35:10.604Z,30.00
2018-09-24T13:37:44.242Z,30.40
2018-09-24T13:40:17.868Z,29.80
2018-09-24T13:42:51.522Z,28.70
2018-09-24T13:45:25.209Z,28.60
2018-09-24T13:47:58.945Z,29.50
2018-09-24T13:50:32.573Z,29.60
2018-09-24T13:53:06.314Z,28.10
2018-09-24T13:55:39.954Z,26.40
2018-09-24T13:58:13.500Z,24.90
2018-09-24T14:00:47.061Z,23.90
2018-09-24T14:03:20.759Z,22.90
2018-09-24T14:05:54.298Z,22.10
2018-09-24T14:08:28.062Z,21.20
2018-09-24T14:11:01.785Z,20.30
2018-09-24T14:13:35.381Z,19.60
2018-09-24T14:16:10.092Z,18.90
2018-09-24T14:18:43.742Z,18.30
2018-09-24T14:21:17.349Z,17.70
2018-09-24T14:23:50.998Z,17.40
2018-09-24T14:26:24.616Z,18.40
2018-09-24T14:28:58.176Z,21.40
2018-09-24T14:31:31.907Z,23.20
2018-09-24T14:34:05.540Z,22.70
2018-09-24T14:36:39.318Z,21.20
2018-09-24T14:39:13.593Z,19.80
2018-09-24T14:41:47.804Z,19.10
2018-09-24T14:44:21.238Z,19.90
2018-09-24T14:46:54.850Z,19.60
2018-09-24T14:49:28.343Z,19.50
2018-09-24T14:52:01.941Z,19.10
2018-09-24T14:54:35.570Z,18.70
2018-09-24T14:57:09.386Z,18.10
2018-09-24T14:59:42.882Z,17.60
2018-09-24T15:02:16.509Z,16.90
2018-09-24T15:04:51.089Z,16.40
2018-09-24T15:07:24.802Z,16.20
2018-09-24T15:09:58.444Z,16.10
2018-09-24T15:12:32.166Z,16.00
2018-09-24T15:15:05.708Z,15.70
2018-09-24T15:17:39.444Z,15.60
2018-09-24T15:20:12.993Z,15.60
2018-09-24T15:22:46.703Z,15.70
2018-09-24T15:25:20.230Z,15.90
2018-09-24T15:27:53.794Z,16.00
2018-09-24T15:30:27.460Z,16.00
2018-09-24T15:33:01.111Z,16.00
2018-09-24T15:35:34.808Z,15.90
2018-09-24T15:38:08.713Z,15.90
2018-09-24T15:40:42.505Z,15.80
2018-09-24T15:43:16.121Z,15.70
2018-09-24T15:45:49.729Z,15.60
2018-09-24T15:48:23.425Z,15.60
2018-09-24T15:50:56.925Z,15.70
2018-09-24T15:53:30.430Z,15.70
2018-09-24T15:56:04.227Z,15.80
2018-09-24T15:58:37.936Z,15.80
2018-09-24T16:01:11.532Z,15.80
2018-09-24T16:03:45.032Z,15.80
2018-09-24T16:06:18.457Z,15.70
2018-09-24T16:08:52.131Z,15.60
2018-09-24T16:11:25.835Z,15.50
2018-09-24T16:13:59.437Z,15.30
2018-09-24T16:16:33.037Z,15.20
2018-09-24T16:19:06.816Z,15.10
2018-09-24T16:21:40.313Z,15.10
2018-09-24T16:24:13.876Z,15.10
2018-09-24T16:26:47.496Z,15.10
2018-09-24T16:29:21.162Z,15.10
2018-09-24T16:31:54.948Z,15.00
2018-09-24T16:34:28.860Z,14.90
2018-09-24T16:37:02.223Z,14.70
2018-09-24T16:39:36.059Z,14.60
2018-09-24T16:42:09.733Z,14.60
2018-09-24T16:44:43.338Z,14.40
2018-09-24T16:47:16.869Z,14.20
2018-09-24T16:49:50.554Z,14.10
2018-09-24T16:52:24.182Z,14.10
2018-09-24T16:54:57.844Z,14.00
2018-09-24T16:57:31.483Z,13.80
2018-09-24T17:00:05.497Z,13.70
2018-09-24T17:02:39.133Z,13.60
2018-09-24T17:05:12.705Z,13.50
2018-09-24T17:07:46.390Z,13.40
2018-09-24T17:10:19.880Z,13.30
2018-09-24T17:12:53.404Z,13.20
2018-09-24T17:15:27.161Z,13.20
2018-09-24T17:18:00.741Z,13.10
2018-09-24T17:20:34.406Z,13.00
2018-09-24T17:23:07.918Z,12.90
2018-09-24T17:25:41.535Z,12.80
2018-09-24T17:28:15.134Z,12.70
2018-09-24T17:30:48.761Z,12.70
2018-09-24T17:33:22.408Z,12.60
2018-09-24T17:35:55.992Z,12.50
2018-09-24T17:38:29.507Z,12.50
2018-09-24T17:41:03.312Z,12.40
2018-09-24T17:43:36.934Z,12.40
2018-09-24T17:46:10.733Z,12.40
2018-09-24T17:48:44.155Z,12.40
2018-09-24T17:51:17.740Z,12.40
2018-09-24T17:53:51.457Z,12.30
2018-09-24T17:56:25.069Z,12.30
2018-09-24T17:58:58.582Z,12.30
2018-09-24T18:01:32.535Z,12.30
2018-09-24T18:04:06.058Z,12.30
2018-09-24T18:06:39.735Z,12.40
2018-09-24T18:09:13.293Z,12.40
2018-09-24T18:11:46.789Z,12.40
2018-09-24T18:14:20.464Z,12.40
2018-09-24T18:16:53.932Z,12.30
2018-09-24T18:19:27.584Z,12.30
2018-09-24T18:22:01.169Z,12.20
2018-09-24T18:24:34.757Z,12.20
2018-09-24T18:27:08.368Z,12.20
2018-09-24T18:29:42.148Z,12.10
2018-09-24T18:32:15.624Z,12.10
2018-09-24T18:34:49.197Z,12.00
2018-09-24T18:37:22.846Z,12.00
2018-09-24T18:39:56.380Z,12.00
2018-09-24T18:42:30.227Z,11.90
2018-09-24T18:45:03.788Z,11.90
2018-09-24T18:47:37.477Z,11.80
2018-09-24T18:50:11.180Z,11.80
2018-09-24T18:52:44.829Z,11.80
2018-09-24T18:55:18.600Z,11.80
2018-09-24T18:57:52.321Z,11.70
2018-09-24T19:00:25.913Z,11.70
2018-09-24T19:02:59.867Z,11.70
2018-09-24T19:05:33.487Z,11.70
2018-09-24T19:08:06.937Z,11.60
2018-09-24T19:10:40.553Z,11.50
2018-09-24T19:13:14.112Z,11.50
2018-09-24T19:15:47.806Z,11.40
2018-09-24T19:18:21.438Z,11.30
2018-09-24T19:20:54.940Z,11.20
2018-09-24T19:23:28.697Z,11.10
2018-09-24T19:26:02.215Z,11.00
2018-09-24T19:28:35.900Z,10.90
2018-09-24T19:31:09.420Z,10.90
2018-09-24T19:33:43.037Z,10.80
2018-09-24T19:36:16.805Z,10.80
2018-09-24T19:38:50.467Z,10.80
2018-09-24T19:41:24.109Z,10.70
2018-09-24T19:43:57.997Z,10.60
2018-09-24T19:46:31.605Z,10.60
2018-09-24T19:49:05.108Z,10.50
2018-09-24T19:51:38.698Z,10.30
2018-09-24T19:54:12.338Z,10.30
2018-09-24T19:56:45.892Z,10.30
2018-09-24T19:59:19.541Z,10.30
2018-09-24T20:01:53.195Z,10.30
2018-09-24T20:04:26.675Z,10.30
2018-09-24T20:07:00.153Z,10.30
2018-09-24T20:09:33.761Z,10.30
2018-09-24T20:12:07.367Z,10.30
2018-09-24T20:14:40.939Z,10.20
2018-09-24T20:17:14.679Z,10.20
2018-09-24T20:19:48.219Z,10.10
2018-09-24T20:22:21.805Z,10.00
2018-09-24T20:24:55.694Z,10.00
2018-09-24T20:27:29.274Z,10.00
2018-09-24T20:30:02.961Z,10.00
2018-09-24T20:32:36.713Z,10.10
2018-09-24T20:35:10.257Z,10.00
2018-09-24T20:37:50.797Z,10.10
2018-09-24T20:40:24.438Z,10.20
2018-09-24T20:42:58.030Z,10.20
2018-09-24T20:47:01.224Z,10.20
2018-09-24T20:49:34.838Z,10.20
2018-09-24T20:52:08.342Z,10.10
2018-09-24T20:54:41.970Z,10.10
2018-09-24T20:57:15.522Z,10.10
2018-09-24T20:59:49.187Z,10.10
2018-09-24T21:02:22.585Z,10.20
2018-09-24T21:04:56.168Z,10.20
2018-09-24T21:07:29.956Z,10.20
2018-09-24T21:10:03.638Z,10.20
2018-09-24T21:12:37.153Z,10.30
2018-09-24T21:15:10.801Z,10.20
2018-09-24T21:17:44.176Z,10.20
2018-09-24T21:20:17.857Z,10.10
2018-09-24T21:22:51.453Z,10.00
2018-09-24T21:25:25.081Z,9.90
2018-09-24T21:27:58.686Z,9.80
2018-09-24T21:30:32.359Z,9.80
2018-09-24T21:33:06.001Z,9.70
2018-09-24T21:35:39.592Z,9.60
2018-09-24T21:38:13.008Z,9.60
2018-09-24T21:40:46.389Z,9.50
2018-09-24T21:43:20.026Z,9.50
2018-09-24T21:45:53.711Z,9.50
2018-09-24T21:48:27.274Z,9.50
2018-09-24T21:51:00.913Z,9.50
2018-09-24T21:53:34.441Z,9.30
2018-09-24T21:56:08.058Z,9.30
2018-09-24T21:58:41.741Z,9.30
2018-09-24T22:01:15.293Z,9.20
2018-09-24T22:03:48.888Z,9.20
2018-09-24T22:06:22.548Z,9.20
2018-09-24T22:08:56.364Z,9.10
2018-09-24T22:11:29.978Z,9.10
2018-09-24T22:14:03.473Z,9.10
2018-09-24T22:16:37.142Z,9.00
2018-09-24T22:19:10.789Z,9.00
2018-09-24T22:21:44.301Z,9.00
2018-09-24T22:24:17.909Z,9.00
2018-09-24T22:26:51.544Z,9.10
2018-09-24T22:29:25.121Z,9.10
2018-09-24T22:31:58.757Z,8.90
2018-09-24T22:34:32.360Z,8.90
2018-09-24T22:37:05.846Z,8.90
2018-09-24T22:39:39.444Z,8.90
2018-09-24T22:42:13.049Z,8.80
2018-09-24T22:44:46.674Z,8.90
2018-09-24T22:47:20.333Z,8.80
2018-09-24T22:49:54.066Z,8.80
2018-09-24T22:52:27.580Z,8.80
2018-09-24T22:55:01.207Z,8.80
2018-09-24T22:57:34.817Z,8.70
2018-09-24T23:00:08.509Z,8.70
2018-09-24T23:02:42.163Z,8.70
2018-09-24T23:05:15.698Z,8.70
2018-09-24T23:07:49.336Z,8.60
2018-09-24T23:10:23.062Z,8.60
2018-09-24T23:12:56.694Z,8.50
2018-09-24T23:15:30.244Z,8.40
2018-09-24T23:18:03.847Z,8.40
2018-09-24T23:20:37.446Z,8.40
2018-09-24T23:23:11.081Z,8.40
2018-09-24T23:25:44.473Z,8.30
2018-09-24T23:28:18.149Z,8.40
2018-09-24T23:30:51.796Z,8.40
2018-09-24T23:33:25.453Z,8.40
2018-09-24T23:35:59.089Z,8.40
2018-09-24T23:38:32.633Z,8.40
2018-09-24T23:41:06.277Z,8.40
2018-09-24T23:43:39.910Z,8.40
2018-09-24T23:46:13.573Z,8.40
2018-09-24T23:48:46.974Z,8.30
2018-09-24T23:51:20.801Z,8.30
2018-09-24T23:53:54.320Z,8.30
2018-09-24T23:56:27.936Z,8.20
2018-09-24T23:59:01.549Z,8.30
